Time;durP1;ratioP1;P1;durP2;ratioP2;P2;SDS_P1;SDS_P2;PMS_P1;PMS_P2;Temp;Humidity;BMP_temperature;BMP_pressure;BME280_temperature;BME280_humidity;BME280_pressure;Samples;Min_cycle;Max_cycle;Signal;HPM_P1;HPM_P2
2023/12/20 00:00:59;;;;;;;14.48;5.05;;;;;;;6.80;81.13;100290.31;10260989;28;20050;-62
2023/12/20 00:06:01;;;;;;;9.93;4.35;;;;;;;6.90;81.18;100283.03;10259762;28;20059;-62
2023/12/20 00:11:02;;;;;;;11.02;4.68;;;;;;;6.85;81.36;100283.50;10260985;28;20062;-63
2023/12/20 00:16:04;;;;;;;9.70;4.15;;;;;;;6.90;81.25;100283.03;10260683;28;20031;-62
2023/12/20 00:21:06;;;;;;;10.27;3.83;;;;;;;6.93;81.06;100285.38;10261949;28;20031;-62
2023/12/20 00:26:07;;;;;;;9.40;4.25;;;;;;;6.98;80.55;100290.28;10267836;28;20062;-61
2023/12/20 00:31:08;;;;;;;10.68;4.35;;;;;;;6.94;81.48;100274.53;10262959;28;20063;-62
2023/12/20 00:36:10;;;;;;;12.15;4.25;;;;;;;6.90;80.78;100275.84;10261128;28;20099;-61
2023/12/20 00:41:11;;;;;;;9.75;4.50;;;;;;;6.92;80.79;100281.06;10256795;28;20062;-62
2023/12/20 00:46:13;;;;;;;7.30;3.72;;;;;;;6.94;80.79;100279.06;10262384;28;20039;-61
2023/12/20 00:51:14;;;;;;;9.10;3.90;;;;;;;6.84;81.63;100281.81;10265940;28;20541;-62
2023/12/20 00:56:16;;;;;;;7.55;4.43;;;;;;;6.87;80.88;100278.84;10264309;28;20063;-62
2023/12/20 01:01:18;;;;;;;9.95;4.00;;;;;;;6.82;80.99;100266.94;10263208;28;20058;-61
2023/12/20 01:06:19;;;;;;;8.52;4.07;;;;;;;6.78;81.62;100261.06;10261089;28;20051;-61
2023/12/20 01:11:21;;;;;;;9.57;4.18;;;;;;;6.74;81.15;100263.19;10262472;28;20051;-61
2023/12/20 01:16:22;;;;;;;8.95;3.90;;;;;;;6.72;81.87;100257.16;10259576;28;20070;-62
2023/12/20 01:21:24;;;;;;;8.05;3.35;;;;;;;6.73;80.99;100261.53;10266219;28;20052;-61
2023/12/20 01:26:25;;;;;;;6.95;3.97;;;;;;;6.70;81.40;100244.97;10234509;28;20059;-64
2023/12/20 01:31:27;;;;;;;8.98;3.35;;;;;;;6.62;81.46;100248.41;10217032;28;20170;-65
2023/12/20 01:36:29;;;;;;;10.00;3.78;;;;;;;6.67;81.75;100254.09;10206303;28;20059;-65
2023/12/20 01:41:30;;;;;;;6.70;3.55;;;;;;;6.66;81.53;100255.13;10223776;28;20043;-65
2023/12/20 01:46:32;;;;;;;5.45;3.00;;;;;;;6.69;81.63;100254.78;10218323;28;20438;-65
2023/12/20 01:51:33;;;;;;;7.40;3.50;;;;;;;6.67;80.72;100266.63;10221926;28;20047;-65
2023/12/20 01:56:35;;;;;;;8.45;3.55;;;;;;;6.67;81.22;100266.63;10214293;28;20055;-64
2023/12/20 02:01:36;;;;;;;8.82;3.53;;;;;;;6.70;81.26;100293.03;10235723;28;20052;-64
2023/12/20 02:06:40;;;;;;;8.68;3.72;;;;;;;6.74;81.10;100295.25;10211851;28;20051;-64
2023/12/20 02:11:41;;;;;;;7.10;2.40;;;;;;;6.79;80.69;100248.53;10217309;28;20171;-63
2023/12/20 02:16:43;;;;;;;10.00;3.47;;;;;;;6.78;81.59;100271.75;10218063;28;20063;-64
2023/12/20 02:21:44;;;;;;;7.30;3.17;;;;;;;6.82;80.80;100261.59;10237633;28;20495;-64
2023/12/20 02:26:46;;;;;;;8.23;3.28;;;;;;;6.78;80.88;100246.88;10131320;29;20048;-64
2023/12/20 02:31:47;;;;;;;7.63;3.17;;;;;;;6.77;81.29;100250.53;10135847;29;20041;-64
2023/12/20 02:36:49;;;;;;;7.22;2.95;;;;;;;6.73;81.34;100242.84;10143167;29;20047;-59
2023/12/20 02:41:50;;;;;;;7.55;2.80;;;;;;;6.80;80.68;100251.06;10152333;29;20040;-59
2023/12/20 02:46:52;;;;;;;5.75;3.03;;;;;;;6.76;80.73;100247.03;10153877;29;20398;-59
2023/12/20 02:51:53;;;;;;;5.43;3.22;;;;;;;6.74;81.41;100249.84;10154716;29;20063;-59
2023/12/20 02:56:55;;;;;;;8.10;3.28;;;;;;;6.79;81.44;100248.53;10151998;29;20064;-59
2023/12/20 03:01:56;;;;;;;8.75;3.15;;;;;;;6.79;81.15;100268.06;10150721;29;20108;-59
2023/12/20 03:06:58;;;;;;;8.02;2.70;;;;;;;6.81;80.82;100251.88;10155338;29;20052;-60
2023/12/20 03:11:59;;;;;;;7.13;2.80;;;;;;;6.83;80.49;100264.13;10151686;29;20063;-60
2023/12/20 03:17:01;;;;;;;6.80;2.78;;;;;;;6.89;80.42;100262.63;10155627;29;20047;-59
2023/12/20 03:22:02;;;;;;;7.88;3.10;;;;;;;6.94;80.95;100255.00;10158495;29;20259;-59
2023/12/20 03:27:04;;;;;;;6.72;2.58;;;;;;;6.96;81.05;100269.06;10224068;28;20039;-59
2023/12/20 03:32:05;;;;;;;5.85;2.55;;;;;;;7.01;80.43;100272.13;10228217;28;20052;-60
2023/12/20 03:37:07;;;;;;;4.43;2.03;;;;;;;7.08;80.10;100285.69;10232234;28;20043;-61
2023/12/20 03:42:08;;;;;;;4.22;2.33;;;;;;;7.12;80.77;100298.56;10231148;28;20138;-62
2023/12/20 03:47:10;;;;;;;6.15;2.60;;;;;;;7.12;80.76;100284.38;10222281;28;20051;-63
2023/12/20 03:52:12;;;;;;;5.65;2.70;;;;;;;7.06;80.85;100311.72;10213640;28;20043;-63
2023/12/20 03:57:13;;;;;;;5.25;2.85;;;;;;;7.03;80.73;100296.00;10207553;28;20079;-63
2023/12/20 04:02:15;;;;;;;4.45;2.05;;;;;;;7.14;80.50;100295.75;10216761;28;20998;-63
2023/12/20 04:07:16;;;;;;;3.90;1.58;;;;;;;7.15;80.10;100300.94;10212000;28;20052;-63
2023/12/20 04:12:18;;;;;;;4.05;1.83;;;;;;;7.21;80.65;100303.97;10212614;28;20051;-62
2023/12/20 04:17:20;;;;;;;5.50;2.30;;;;;;;7.19;80.74;100293.47;10213940;28;20047;-62
2023/12/20 04:22:21;;;;;;;5.40;2.10;;;;;;;7.14;80.83;100307.28;10216499;28;20070;-62
2023/12/20 04:27:23;;;;;;;5.47;1.98;;;;;;;7.14;80.21;100312.63;10215436;28;20510;-63
2023/12/20 04:32:24;;;;;;;4.68;1.58;;;;;;;7.22;80.69;100311.84;10219625;28;20047;-62
2023/12/20 04:37:26;;;;;;;8.73;1.65;;;;;;;7.18;80.11;100318.50;10214068;28;20047;-62
2023/12/20 04:42:27;;;;;;;5.10;1.95;;;;;;;7.24;80.43;100323.22;10223142;28;20071;-62
2023/12/20 04:47:29;;;;;;;4.05;1.90;;;;;;;7.26;79.89;100325.75;10214384;28;20043;-62
2023/12/20 04:52:30;;;;;;;3.75;2.17;;;;;;;7.11;80.66;100330.84;10208765;28;20059;-63
2023/12/20 04:57:32;;;;;;;5.40;2.72;;;;;;;7.01;80.08;100346.09;10205106;28;20062;-64
2023/12/20 05:02:34;;;;;;;7.20;2.75;;;;;;;6.95;80.28;100353.75;10209184;28;20052;-64
2023/12/20 05:07:35;;;;;;;6.70;2.65;;;;;;;6.89;79.38;100365.03;10209725;28;20051;-64
2023/12/20 05:12:37;;;;;;;4.03;1.20;;;;;;;6.87;80.68;100368.84;10208748;28;20051;-64
2023/12/20 05:17:38;;;;;;;2.97;0.57;;;;;;;6.88;80.29;100371.34;10206646;28;20074;-64
2023/12/20 05:22:41;;;;;;;3.00;0.82;;;;;;;6.89;79.85;100364.19;10210767;28;20058;-64
2023/12/20 05:27:42;;;;;;;3.55;0.60;;;;;;;6.92;79.18;100370.06;10211294;28;20055;-64
2023/12/20 05:32:44;;;;;;;6.97;0.60;;;;;;;6.92;79.66;100379.91;10214123;28;20056;-64
2023/12/20 05:37:46;;;;;;;4.72;0.40;;;;;;;7.02;79.35;100385.19;10218784;28;20087;-64
2023/12/20 05:42:48;;;;;;;3.30;0.30;;;;;;;6.98;78.66;100384.66;10218991;28;20044;-64
2023/12/20 05:47:49;;;;;;;2.17;0.77;;;;;;;6.95;78.46;100388.47;10217308;28;20495;-66
2023/12/20 05:52:51;;;;;;;1.52;0.40;;;;;;;6.88;78.00;100374.03;10214189;28;20082;-65
2023/12/20 05:57:52;;;;;;;1.60;0.38;;;;;;;6.91;77.85;100384.44;10217404;28;20051;-64
2023/12/20 06:02:54;;;;;;;2.30;0.40;;;;;;;7.03;76.69;100384.19;10212213;28;20366;-64
2023/12/20 06:08:01;;;;;;;4.80;0.30;;;;;;;7.08;76.88;100396.09;10232371;28;20053;-61
2023/12/20 06:13:04;;;;;;;3.28;0.40;;;;;;;7.12;76.68;100396.66;10231765;28;20114;-61
2023/12/20 06:18:06;;;;;;;5.72;0.50;;;;;;;7.11;76.46;100421.72;10236108;28;20499;-62
2023/12/20 06:23:08;;;;;;;5.65;1.05;;;;;;;7.02;76.05;100396.72;10226604;28;20532;-61
2023/12/20 06:28:10;;;;;;;3.10;0.30;;;;;;;6.94;76.12;100408.16;10228797;29;20059;-61
2023/12/20 06:33:11;;;;;;;10.80;0.57;;;;;;;6.93;76.60;100395.81;10227273;28;20051;-62
2023/12/20 06:38:13;;;;;;;4.53;0.47;;;;;;;6.84;76.04;100396.69;10242067;28;20059;-62
2023/12/20 06:43:14;;;;;;;3.80;0.40;;;;;;;6.74;75.79;100402.09;10232907;28;20115;-62
2023/12/20 06:48:36;;;;;;;4.30;0.50;;;;;;;6.66;76.58;100410.03;10239504;28;20051;-62
2023/12/20 06:53:37;;;;;;;5.15;0.50;;;;;;;6.62;76.54;100419.34;10219592;28;20068;-61
2023/12/20 06:58:38;;;;;;;6.45;1.80;;;;;;;6.65;76.32;100426.19;10226139;28;20050;-61
2023/12/20 07:03:40;;;;;;;3.20;0.50;;;;;;;6.70;76.25;100437.28;10219394;28;20062;-61
2023/12/20 07:08:42;;;;;;;5.20;0.75;;;;;;;6.77;76.17;100443.69;10218805;28;20039;-61
2023/12/20 07:13:43;;;;;;;1.17;0.32;;;;;;;6.79;76.36;100428.34;10213846;29;20055;-60
2023/12/20 07:18:45;;;;;;;3.25;0.70;;;;;;;6.83;76.71;100429.78;10229147;28;20057;-60
2023/12/20 07:23:46;;;;;;;5.65;0.80;;;;;;;6.83;76.17;100456.50;10264061;28;20031;-64
2023/12/20 07:28:48;;;;;;;4.38;0.55;;;;;;;6.79;75.98;100441.72;10267854;28;20397;-62
2023/12/20 07:33:49;;;;;;;4.18;1.02;;;;;;;6.68;76.27;100450.78;10286344;28;20050;-62
2023/12/20 07:38:51;;;;;;;5.97;1.00;;;;;;;6.55;77.34;100456.44;10269947;28;20161;-63
2023/12/20 07:43:53;;;;;;;6.45;0.90;;;;;;;6.64;76.32;100460.09;10258762;28;20124;-62
2023/12/20 07:48:55;;;;;;;3.25;0.80;;;;;;;6.63;76.74;100460.22;10267658;28;20042;-62
2023/12/20 07:53:56;;;;;;;1.67;0.80;;;;;;;6.62;76.81;100451.38;10265586;28;20038;-63
2023/12/20 07:58:57;;;;;;;5.05;0.70;;;;;;;6.55;77.01;100458.28;10245317;28;20047;-65
2023/12/20 08:04:01;;;;;;;1.30;0.80;;;;;;;6.53;76.66;100460.28;10212780;28;20668;-65
2023/12/20 08:09:02;;;;;;;4.88;0.70;;;;;;;6.56;76.48;100470.66;10221484;28;20094;-65
2023/12/20 08:14:07;;;;;;;4.82;0.88;;;;;;;6.61;76.70;100470.22;10212701;28;20046;-65
2023/12/20 08:19:09;;;;;;;6.18;0.80;;;;;;;6.63;76.82;100471.75;10212400;28;20039;-65
2023/12/20 08:24:10;;;;;;;5.18;1.23;;;;;;;6.66;76.26;100471.47;10213447;28;20052;-69
2023/12/20 08:29:15;;;;;;;8.35;0.82;;;;;;;6.57;76.48;100474.16;10208609;28;20044;-68
2023/12/20 08:34:16;;;;;;;7.30;1.50;;;;;;;6.51;76.35;100481.78;10208938;28;20507;-70
2023/12/20 08:39:18;;;;;;;10.68;1.30;;;;;;;6.49;76.63;100469.56;10211470;28;20118;-69
2023/12/20 08:44:19;;;;;;;2.45;0.50;;;;;;;6.46;76.78;100483.22;10212606;28;20040;-69
2023/12/20 08:49:21;;;;;;;4.70;1.10;;;;;;;6.43;76.77;100472.81;10204143;28;20129;-69
2023/12/20 08:54:22;;;;;;;2.30;0.90;;;;;;;6.46;76.91;100473.38;10203298;28;20044;-67
2023/12/20 08:59:24;;;;;;;11.18;1.00;;;;;;;6.49;76.32;100481.06;10211932;28;20048;-67
2023/12/20 09:04:25;;;;;;;5.20;0.65;;;;;;;6.53;77.45;100473.63;10208935;28;20525;-66
2023/12/20 09:09:27;;;;;;;2.22;0.60;;;;;;;6.74;76.83;100468.88;10210288;28;20036;-65
2023/12/20 09:14:28;;;;;;;6.18;0.60;;;;;;;6.80;76.57;100467.47;10219198;28;20047;-67
2023/12/20 09:19:29;;;;;;;9.40;1.38;;;;;;;6.89;76.14;100465.72;10213841;28;20040;-66
2023/12/20 09:24:31;;;;;;;5.15;0.90;;;;;;;7.06;76.16;100467.59;10217371;28;20063;-66
2023/12/20 09:29:33;;;;;;;4.60;0.75;;;;;;;7.13;76.13;100473.19;10223654;28;20054;-66
2023/12/20 09:34:34;;;;;;;2.00;0.93;;;;;;;7.21;75.78;100464.38;10241100;28;20047;-62
2023/12/20 09:39:36;;;;;;;5.50;1.05;;;;;;;7.31;76.28;100463.34;10285901;28;20036;-62
2023/12/20 09:44:40;;;;;;;11.00;0.70;;;;;;;7.38;76.42;100470.75;10276399;28;20027;-62
2023/12/20 09:49:44;;;;;;;6.47;0.63;;;;;;;7.45;75.59;100466.47;10269736;28;20047;-62
2023/12/20 09:54:49;;;;;;;1.38;0.60;;;;;;;7.49;75.68;100471.38;10259107;28;20039;-65
2023/12/20 09:59:51;;;;;;;5.88;0.65;;;;;;;7.51;75.58;100468.53;10243516;28;20043;-63
2023/12/20 10:04:52;;;;;;;2.75;0.68;;;;;;;7.65;75.06;100462.66;10243064;28;20655;-62
2023/12/20 10:09:55;;;;;;;4.55;0.80;;;;;;;7.60;75.44;100456.91;10237617;28;20036;-63
2023/12/20 10:14:57;;;;;;;3.88;0.60;;;;;;;7.61;75.53;100452.41;10237370;28;20116;-63
2023/12/20 10:19:59;;;;;;;3.42;0.60;;;;;;;7.60;75.43;100453.41;10239561;28;20062;-64
2023/12/20 10:25:00;;;;;;;5.45;1.42;;;;;;;7.69;74.98;100433.75;10248709;28;20052;-62
2023/12/20 10:30:02;;;;;;;4.15;0.80;;;;;;;7.70;75.22;100422.91;10247857;28;20050;-62
2023/12/20 10:35:04;;;;;;;4.38;0.90;;;;;;;7.73;75.25;100409.19;10244855;28;20114;-63
2023/12/20 10:40:07;;;;;;;5.30;0.70;;;;;;;7.73;75.26;100398.50;10243992;28;20055;-63
2023/12/20 10:45:09;;;;;;;6.97;0.85;;;;;;;7.78;75.43;100394.50;10231113;28;20047;-65
2023/12/20 10:50:11;;;;;;;5.35;0.85;;;;;;;7.86;75.35;100389.19;10214812;28;20064;-65
2023/12/20 10:55:12;;;;;;;4.78;1.10;;;;;;;8.07;75.38;100378.13;10210219;28;20495;-66
2023/12/20 11:00:16;;;;;;;3.33;0.90;;;;;;;8.19;75.03;100371.50;10209353;28;20135;-67
2023/12/20 11:06:03;;;;;;;6.97;0.80;;;;;;;8.36;75.14;100372.41;10209966;28;20134;-67
2023/12/20 11:11:12;;;;;;;4.55;0.47;;;;;;;8.53;74.88;100374.19;10204194;28;20035;-64
2023/12/20 11:16:13;;;;;;;2.88;0.82;;;;;;;8.63;74.01;100360.66;10215476;28;20194;-67
2023/12/20 11:21:15;;;;;;;6.25;0.60;;;;;;;8.89;73.48;100362.41;10210171;28;20747;-68
2023/12/20 11:26:26;;;;;;;2.97;0.40;;;;;;;9.21;71.38;100377.69;10210985;28;20223;-66
2023/12/20 11:31:27;;;;;;;4.82;1.40;;;;;;;9.46;69.81;100372.34;10212848;28;20055;-66
2023/12/20 11:36:32;;;;;;;1.80;0.30;;;;;;;9.60;68.27;100360.09;10212958;28;20141;-66
2023/12/20 11:41:34;;;;;;;4.15;0.68;;;;;;;9.75;68.18;100363.72;10218289;28;20077;-65
2023/12/20 11:46:35;;;;;;;3.45;1.08;;;;;;;9.75;67.42;100360.22;10215644;28;20402;-67
2023/12/20 11:51:41;;;;;;;3.50;0.47;;;;;;;9.75;66.86;100355.69;10212248;28;20135;-68
2023/12/20 11:56:42;;;;;;;4.55;0.50;;;;;;;9.80;66.25;100363.25;10204261;28;20415;-67
2023/12/20 12:01:51;;;;;;;6.95;0.55;;;;;;;9.72;65.44;100364.09;10212307;28;20427;-68
2023/12/20 12:06:54;;;;;;;6.45;0.70;;;;;;;9.67;64.70;100358.38;10211151;28;21146;-66
2023/12/20 12:11:55;;;;;;;2.80;0.40;;;;;;;9.63;64.24;100336.41;10210483;28;20047;-67
2023/12/20 12:16:57;;;;;;;1.88;0.30;;;;;;;9.69;64.34;100335.72;10213738;28;20039;-67
2023/12/20 12:22:16;;;;;;;7.50;0.47;;;;;;;9.80;64.06;100342.59;10212966;28;20521;-67
2023/12/20 12:27:18;;;;;;;1.48;0.28;;;;;;;9.83;63.93;100342.25;10213781;28;20507;-66
2023/12/20 12:32:19;;;;;;;13.30;0.77;;;;;;;9.95;64.15;100350.75;10218454;28;20051;-67
2023/12/20 12:37:23;;;;;;;3.67;0.30;;;;;;;10.00;63.76;100337.69;10232576;28;20051;-68
2023/12/20 12:42:28;;;;;;;2.38;0.20;;;;;;;10.05;63.73;100329.94;10219150;28;20450;-67
2023/12/20 12:47:30;;;;;;;3.25;0.30;;;;;;;10.16;63.69;100322.53;10218160;28;20495;-67
2023/12/20 12:52:32;;;;;;;2.67;0.55;;;;;;;10.25;63.68;100314.25;10221700;28;20557;-68
2023/12/20 12:57:34;;;;;;;3.10;0.60;;;;;;;10.21;62.69;100296.81;10216944;28;20114;-69
2023/12/20 13:02:37;;;;;;;1.80;0.28;;;;;;;10.35;63.07;100291.72;10220534;28;20058;-68
2023/12/20 13:07:39;;;;;;;4.53;0.30;;;;;;;10.38;62.17;100286.84;10220191;28;20099;-66
2023/12/20 13:12:41;;;;;;;3.58;0.38;;;;;;;10.49;62.22;100273.00;10224415;28;20111;-68
2023/12/20 13:17:42;;;;;;;4.53;0.40;;;;;;;10.56;62.44;100264.22;10221259;28;20055;-68
2023/12/20 13:22:44;;;;;;;2.15;0.30;;;;;;;10.40;62.07;100262.47;10228054;28;20055;-66
2023/12/20 13:27:45;;;;;;;3.80;0.38;;;;;;;10.35;62.52;100254.97;10220592;28;20048;-67
2023/12/20 13:32:48;;;;;;;5.30;0.63;;;;;;;10.38;62.80;100241.16;10209287;28;20055;-68
2023/12/20 13:37:50;;;;;;;4.00;0.50;;;;;;;10.25;62.83;100241.72;10206344;28;20046;-68
2023/12/20 13:42:52;;;;;;;3.38;0.40;;;;;;;10.13;62.97;100248.50;10217393;29;20060;-68
2023/12/20 13:47:53;;;;;;;3.08;0.70;;;;;;;9.99;63.06;100252.78;10216032;28;20053;-69
2023/12/20 13:52:55;;;;;;;3.47;0.30;;;;;;;10.04;63.08;100247.69;10223945;28;20058;-68
2023/12/20 13:57:57;;;;;;;4.72;0.70;;;;;;;10.02;63.47;100249.72;10217122;28;20506;-67
2023/12/20 14:02:59;;;;;;;3.42;0.40;;;;;;;9.84;63.72;100252.66;10220389;28;20067;-67
2023/12/20 14:08:00;;;;;;;6.15;0.70;;;;;;;9.79;63.89;100260.38;10217263;28;20050;-69
2023/12/20 14:13:02;;;;;;;7.32;0.73;;;;;;;9.86;63.95;100249.78;10219501;28;20075;-69
2023/12/20 14:18:07;;;;;;;2.80;0.40;;;;;;;9.87;63.90;100238.88;10214539;28;20054;-69
2023/12/20 14:23:09;;;;;;;3.83;0.40;;;;;;;9.79;64.33;100248.81;10208095;28;20043;-68
2023/12/20 14:28:14;;;;;;;2.10;0.50;;;;;;;9.81;64.34;100236.88;10215691;28;20051;-66
2023/12/20 14:33:15;;;;;;;4.70;0.40;;;;;;;9.77;64.34;100235.53;10218113;28;20086;-63
2023/12/20 14:38:16;;;;;;;4.00;0.60;;;;;;;9.75;64.27;100240.25;10241186;28;20134;-63
2023/12/20 14:43:18;;;;;;;2.53;0.55;;;;;;;9.73;64.26;100232.41;10249910;28;20107;-69
2023/12/20 14:48:21;;;;;;;3.50;0.85;;;;;;;9.73;64.14;100213.59;10212819;28;20093;-69
2023/12/20 14:53:22;;;;;;;2.42;0.40;;;;;;;9.65;64.25;100226.22;10214706;28;20063;-69
2023/12/20 14:58:24;;;;;;;9.27;0.52;;;;;;;9.60;64.55;100242.00;10208565;28;20132;-67
2023/12/20 15:03:25;;;;;;;5.15;0.50;;;;;;;9.64;64.43;100233.44;10219475;28;20036;-69
2023/12/20 15:08:27;;;;;;;2.47;0.40;;;;;;;9.48;64.84;100241.53;10208602;28;20055;-69
2023/12/20 15:13:28;;;;;;;5.05;0.30;;;;;;;9.38;64.90;100241.72;10216417;28;20051;-68
2023/12/20 15:18:31;;;;;;;3.08;0.30;;;;;;;9.35;65.04;100242.06;10215731;28;20090;-68
2023/12/20 15:23:33;;;;;;;2.70;0.20;;;;;;;9.25;65.14;100247.59;10210399;28;20065;-67
2023/12/20 15:28:35;;;;;;;3.25;0.30;;;;;;;9.19;65.01;100245.59;10215584;28;20050;-69
2023/12/20 15:33:36;;;;;;;4.20;0.43;;;;;;;9.21;64.88;100232.84;10216749;28;20044;-68
2023/12/20 15:38:38;;;;;;;1.67;0.20;;;;;;;9.09;65.20;100235.03;10209916;28;20058;-68
2023/12/20 15:43:40;;;;;;;2.35;0.30;;;;;;;9.07;65.22;100228.19;10214659;29;20052;-69
2023/12/20 15:48:41;;;;;;;2.08;0.30;;;;;;;9.08;65.16;100228.03;10214327;28;20052;-67
2023/12/20 15:53:43;;;;;;;1.77;0.43;;;;;;;9.06;65.61;100232.72;10205824;28;20062;-65
2023/12/20 15:58:47;;;;;;;5.03;1.05;;;;;;;9.02;65.70;100231.34;10205951;28;20051;-63
2023/12/20 16:03:49;;;;;;;4.70;0.82;;;;;;;9.05;65.63;100236.41;10207073;28;20447;-64
2023/12/20 16:08:59;;;;;;;2.92;0.30;;;;;;;9.03;65.84;100227.69;10213027;28;20043;-64
2023/12/20 16:14:02;;;;;;;4.90;0.40;;;;;;;9.08;65.64;100229.84;10207004;28;20055;-63
2023/12/20 16:19:03;;;;;;;1.75;0.30;;;;;;;9.07;65.87;100233.56;10206034;28;20047;-67
2023/12/20 16:24:05;;;;;;;6.00;0.43;;;;;;;8.98;66.20;100235.38;10207858;28;20048;-66
2023/12/20 16:29:07;;;;;;;3.22;0.57;;;;;;;8.90;66.45;100238.06;10210171;28;20051;-66
2023/12/20 16:34:09;;;;;;;4.13;0.75;;;;;;;8.86;66.63;100242.94;10210776;28;20426;-65
2023/12/20 16:39:10;;;;;;;4.70;0.63;;;;;;;8.88;66.62;100246.28;10206602;28;20052;-66
2023/12/20 16:44:12;;;;;;;3.03;1.15;;;;;;;8.83;66.87;100245.13;10209039;28;20465;-66
2023/12/20 16:49:13;;;;;;;5.82;0.40;;;;;;;8.85;66.80;100230.53;10215097;28;20162;-65
2023/12/20 16:54:15;;;;;;;4.15;0.65;;;;;;;8.86;67.09;100232.19;10216820;28;20518;-65
2023/12/20 16:59:17;;;;;;;3.35;0.40;;;;;;;8.85;67.14;100241.25;10232949;28;20059;-65
2023/12/20 17:04:18;;;;;;;2.97;0.60;;;;;;;8.89;67.23;100226.53;10229909;28;20120;-65
2023/12/20 17:09:19;;;;;;;3.10;0.70;;;;;;;8.90;67.10;100222.00;10214513;28;20086;-65
2023/12/20 17:14:21;;;;;;;3.38;1.50;;;;;;;8.92;67.24;100226.16;10202124;28;20055;-65
2023/12/20 17:19:23;;;;;;;8.02;1.52;;;;;;;8.96;67.04;100231.19;10207499;29;20052;-66
2023/12/20 17:24:26;;;;;;;3.00;0.77;;;;;;;8.97;67.06;100233.72;10207006;28;20047;-66
2023/12/20 17:29:27;;;;;;;6.93;0.90;;;;;;;9.04;66.82;100225.84;10203746;28;20056;-67
2023/12/20 17:34:29;;;;;;;4.25;0.70;;;;;;;9.01;66.99;100218.97;10214454;28;20051;-66
2023/12/20 17:39:30;;;;;;;4.00;1.17;;;;;;;8.96;67.20;100225.84;10214119;28;20047;-66
2023/12/20 17:44:32;;;;;;;1.80;0.73;;;;;;;8.98;67.28;100240.75;10207891;28;20124;-65
2023/12/20 17:49:33;;;;;;;8.27;3.17;;;;;;;8.84;67.76;100244.94;10213671;28;20044;-65
2023/12/20 17:54:35;;;;;;;6.20;1.23;;;;;;;8.78;67.28;100239.41;10210387;28;20047;-64
2023/12/20 17:59:38;;;;;;;6.30;0.73;;;;;;;8.74;68.07;100217.47;10207374;28;20052;-64
2023/12/20 18:04:39;;;;;;;6.47;0.55;;;;;;;8.71;68.14;100217.81;10216528;28;20503;-64
2023/12/20 18:09:41;;;;;;;3.47;0.55;;;;;;;8.63;68.32;100207.94;10218177;28;20755;-64
2023/12/20 18:14:46;;;;;;;6.97;0.77;;;;;;;8.53;68.71;100200.06;10217231;28;20052;-64
2023/12/20 18:19:47;;;;;;;3.78;1.17;;;;;;;8.52;68.71;100197.53;10219247;28;20054;-64
2023/12/20 18:24:50;;;;;;;3.72;0.60;;;;;;;8.47;68.82;100205.22;10211600;28;20574;-64
2023/12/20 18:29:52;;;;;;;2.40;0.85;;;;;;;8.45;68.80;100201.88;10208893;28;20070;-65
2023/12/20 18:35:06;;;;;;;4.60;0.60;;;;;;;8.41;69.29;100195.16;10209871;29;20071;-65
2023/12/20 18:40:08;;;;;;;4.47;0.60;;;;;;;8.45;69.36;100204.56;10214898;28;20058;-64
2023/12/20 18:45:09;;;;;;;6.45;0.70;;;;;;;8.32;69.53;100196.97;10198087;28;20339;-65
2023/12/20 18:50:11;;;;;;;2.38;0.70;;;;;;;8.23;70.19;100193.44;10213986;28;20043;-64
2023/12/20 18:55:13;;;;;;;2.45;0.73;;;;;;;8.07;70.74;100194.25;10224309;28;20059;-65
2023/12/20 19:00:14;;;;;;;6.30;0.85;;;;;;;8.03;71.18;100179.50;10220930;28;20737;-66
2023/12/20 19:05:16;;;;;;;12.65;1.02;;;;;;;7.96;71.66;100183.88;10219662;29;20061;-64
2023/12/20 19:10:20;;;;;;;6.57;0.85;;;;;;;7.92;71.95;100172.63;10211559;29;20399;-65
2023/12/20 19:15:24;;;;;;;5.78;1.67;;;;;;;7.93;72.25;100170.78;10221000;29;20080;-64
2023/12/20 19:20:25;;;;;;;5.53;1.00;;;;;;;8.02;72.36;100166.31;10211123;28;20046;-65
2023/12/20 19:25:27;;;;;;;3.45;0.80;;;;;;;8.04;72.29;100149.09;10209573;28;20052;-64
2023/12/20 19:30:29;;;;;;;9.45;0.80;;;;;;;8.13;71.77;100158.78;10219492;28;20051;-64
2023/12/20 19:35:31;;;;;;;12.50;1.05;;;;;;;8.24;71.68;100151.47;10212548;28;20055;-64
2023/12/20 19:40:32;;;;;;;5.40;1.05;;;;;;;8.39;71.66;100162.34;10211386;28;20035;-64
2023/12/20 19:45:34;;;;;;;6.65;1.45;;;;;;;8.41;71.53;100155.84;10208106;28;20055;-64
2023/12/20 19:50:36;;;;;;;5.20;0.85;;;;;;;8.43;71.80;100156.53;10216901;28;20048;-64
2023/12/20 19:55:37;;;;;;;6.25;1.05;;;;;;;8.33;72.09;100139.72;10213397;28;20050;-64
2023/12/20 20:00:39;;;;;;;7.07;1.33;;;;;;;8.37;72.39;100127.69;10211199;28;20051;-64
2023/12/20 20:05:53;;;;;;;3.53;0.77;;;;;;;8.34;72.43;100115.47;10234353;28;20553;-64
2023/12/20 20:10:55;;;;;;;5.03;1.13;;;;;;;8.41;72.66;100122.81;10216886;28;20048;-64
2023/12/20 20:15:58;;;;;;;7.93;1.00;;;;;;;8.45;72.45;100103.63;10218243;28;20440;-64
2023/12/20 20:20:59;;;;;;;8.02;1.00;;;;;;;8.40;72.91;100102.41;10205126;28;21857;-64
2023/12/20 20:26:01;;;;;;;11.82;1.95;;;;;;;8.32;73.00;100081.84;10213704;28;20062;-64
2023/12/20 20:31:02;;;;;;;4.85;1.95;;;;;;;8.28;73.22;100075.13;10207368;28;20043;-62
2023/12/20 20:36:06;;;;;;;4.57;1.58;;;;;;;8.28;73.63;100072.47;10210425;28;20352;-63
2023/12/20 20:41:08;;;;;;;6.28;1.33;;;;;;;8.36;73.41;100080.50;10210931;28;20035;-63
2023/12/20 20:46:10;;;;;;;5.63;1.85;;;;;;;8.41;73.60;100071.94;10221207;28;20221;-61
2023/12/20 20:51:12;;;;;;;7.57;1.80;;;;;;;8.42;73.73;100054.91;10261182;28;20281;-61
2023/12/20 20:56:14;;;;;;;5.25;1.35;;;;;;;8.37;73.66;100054.53;10232724;28;20451;-63
2023/12/20 21:01:15;;;;;;;3.05;1.35;;;;;;;8.37;73.64;100055.38;10228703;28;20056;-62
2023/12/20 21:06:17;;;;;;;4.68;1.50;;;;;;;8.43;74.08;100036.00;10231698;28;20063;-61
2023/12/20 21:11:20;;;;;;;3.33;1.55;;;;;;;8.45;74.00;100023.28;10227319;28;20048;-61
2023/12/20 21:16:22;;;;;;;7.43;1.77;;;;;;;8.57;73.45;100023.75;10226243;28;20134;-62
2023/12/20 21:21:24;;;;;;;4.68;1.27;;;;;;;8.63;73.70;100004.31;10230469;28;20130;-62
2023/12/20 21:26:25;;;;;;;4.15;1.45;;;;;;;8.63;73.57;99998.09;10240451;28;20091;-63
2023/12/20 21:31:26;;;;;;;5.00;1.10;;;;;;;8.66;73.61;99997.75;10218512;28;20047;-62
2023/12/20 21:36:28;;;;;;;5.45;1.83;;;;;;;8.72;73.83;100000.56;10215829;28;20044;-62
2023/12/20 21:41:29;;;;;;;5.68;1.13;;;;;;;8.81;73.10;99988.00;10229527;28;20047;-62
2023/12/20 21:46:32;;;;;;;3.60;1.42;;;;;;;8.81;73.17;99974.59;10221320;28;20044;-63
2023/12/20 21:51:33;;;;;;;2.28;1.50;;;;;;;8.89;73.08;99945.06;10218736;28;20114;-62
2023/12/20 21:56:36;;;;;;;3.55;1.35;;;;;;;8.81;73.22;99944.28;10220099;28;20040;-59
2023/12/20 22:01:42;;;;;;;3.15;1.30;;;;;;;8.68;73.48;99934.13;10219898;28;20146;-59
2023/12/20 22:06:44;;;;;;;2.53;1.30;;;;;;;8.70;73.66;99938.28;10216838;28;20151;-60
2023/12/20 22:11:45;;;;;;;3.35;1.00;;;;;;;8.52;74.23;99945.72;10222051;28;20059;-61
2023/12/20 22:16:47;;;;;;;7.43;1.80;;;;;;;8.22;75.33;99920.53;10222040;28;20046;-61
2023/12/20 22:21:48;;;;;;;2.42;1.10;;;;;;;8.17;75.52;99933.56;10217842;28;20050;-61
2023/12/20 22:26:49;;;;;;;5.28;1.50;;;;;;;8.05;75.88;99928.56;10217207;28;20048;-61
2023/12/20 22:31:51;;;;;;;4.40;1.30;;;;;;;8.10;75.92;99909.34;10222181;28;20124;-61
2023/12/20 22:36:53;;;;;;;2.25;1.25;;;;;;;8.12;75.81;99905.47;10227636;28;20104;-60
2023/12/20 22:41:54;;;;;;;4.53;1.60;;;;;;;8.07;76.64;99905.13;10236898;28;20423;-60
2023/12/20 22:46:56;;;;;;;2.67;1.80;;;;;;;8.09;76.36;99899.63;10235265;28;20052;-61
2023/12/20 22:51:57;;;;;;;2.88;1.35;;;;;;;8.12;76.73;99888.59;10236784;28;20047;-61
2023/12/20 22:56:59;;;;;;;2.40;1.10;;;;;;;8.13;76.83;99903.63;10239500;28;20056;-61
2023/12/20 23:02:00;;;;;;;2.80;1.30;;;;;;;8.18;76.73;99889.75;10237772;28;20111;-60
2023/12/20 23:07:02;;;;;;;3.65;1.10;;;;;;;8.22;76.70;99875.00;10211975;28;20106;-64
2023/12/20 23:12:04;;;;;;;3.15;0.80;;;;;;;8.24;76.57;99862.28;10215404;28;20095;-64
2023/12/20 23:17:05;;;;;;;4.53;0.90;;;;;;;8.29;76.58;99859.91;10216856;28;20352;-64
2023/12/20 23:22:07;;;;;;;1.55;0.90;;;;;;;8.26;77.02;99850.38;10214612;28;20054;-64